createdAt,value
2019-02-08T00:00:20.191Z,49.37
2019-02-08T00:02:48.536Z,47.60
2019-02-08T00:05:16.820Z,53.90
2019-02-08T00:07:45.132Z,51.57
2019-02-08T00:10:15.902Z,51.53
2019-02-08T00:12:44.219Z,53.97
2019-02-08T00:15:15.473Z,52.77
2019-02-08T00:17:43.783Z,48.43
2019-02-08T00:20:18.253Z,48.33
2019-02-08T00:22:46.582Z,49.47
2019-02-08T00:25:17.553Z,49.53
2019-02-08T00:27:45.817Z,46.47
2019-02-08T00:30:20.627Z,48.50
2019-02-08T00:32:49.066Z,51.47
2019-02-08T00:35:17.507Z,47.97
2019-02-08T00:37:45.822Z,48.93
2019-02-08T00:40:16.538Z,47.50
2019-02-08T00:42:44.810Z,46.63
2019-02-08T00:45:22.691Z,44.77
2019-02-08T00:47:50.999Z,48.77
2019-02-08T00:50:21.722Z,48.80
2019-02-08T00:52:50.032Z,50.00
2019-02-08T00:55:18.768Z,48.53
2019-02-08T00:57:47.042Z,48.57
2019-02-08T01:00:16.529Z,46.97
2019-02-08T01:02:46.680Z,46.60
2019-02-08T01:05:19.990Z,44.23
2019-02-08T01:07:48.299Z,45.97
2019-02-08T01:10:21.901Z,42.47
2019-02-08T01:12:50.179Z,46.57
2019-02-08T01:15:19.909Z,41.77
2019-02-08T01:17:48.191Z,41.17
2019-02-08T01:20:18.614Z,40.50
2019-02-08T01:22:46.991Z,41.63
2019-02-08T01:25:17.622Z,46.20
2019-02-08T01:27:46.170Z,41.03
2019-02-08T01:30:22.847Z,40.67
2019-02-08T01:32:51.137Z,40.97
2019-02-08T01:35:20.655Z,42.17
2019-02-08T01:37:49.333Z,39.37
2019-02-08T01:40:26.882Z,42.77
2019-02-08T01:42:55.964Z,37.77
2019-02-08T01:45:26.173Z,39.27
2019-02-08T01:47:54.457Z,38.63
2019-02-08T01:50:28.420Z,38.33
2019-02-08T01:52:56.694Z,38.73
2019-02-08T01:55:24.966Z,37.87
2019-02-08T01:57:53.273Z,38.10
2019-02-08T02:00:27.558Z,37.63
2019-02-08T02:02:55.829Z,39.13
2019-02-08T02:05:24.206Z,41.90
2019-02-08T02:07:52.473Z,40.73
2019-02-08T02:10:32.397Z,38.80
2019-02-08T02:13:00.673Z,39.97
2019-02-08T02:15:29.033Z,39.67
2019-02-08T02:17:57.488Z,42.13
2019-02-08T02:20:28.698Z,42.33
2019-02-08T02:22:56.977Z,41.80
2019-02-08T02:25:25.284Z,44.27
2019-02-08T02:27:53.565Z,40.20
2019-02-08T02:30:24.945Z,43.70
2019-02-08T02:32:53.269Z,43.27
2019-02-08T02:35:21.551Z,38.73
2019-02-08T02:37:49.860Z,39.97
2019-02-08T02:40:20.098Z,35.77
2019-02-08T02:42:48.437Z,36.27
2019-02-08T02:45:24.982Z,37.03
2019-02-08T02:47:53.268Z,37.97
2019-02-08T02:50:21.534Z,38.97
2019-02-08T02:52:49.841Z,39.30
2019-02-08T02:55:26.473Z,38.63
2019-02-08T02:57:54.802Z,38.97
2019-02-08T03:00:25.913Z,38.73
2019-02-08T03:02:54.177Z,40.70
2019-02-08T03:05:22.495Z,41.37
2019-02-08T03:07:50.770Z,40.13
2019-02-08T03:10:20.883Z,37.23
2019-02-08T03:12:49.187Z,42.93
2019-02-08T03:15:19.718Z,40.50
2019-02-08T03:17:47.981Z,39.73
2019-02-08T03:20:18.153Z,38.27
2019-02-08T03:22:46.418Z,39.80
2019-02-08T03:25:20.388Z,41.03
2019-02-08T03:27:48.699Z,43.20
2019-02-08T03:30:23.854Z,40.90
2019-02-08T03:32:52.125Z,39.40
2019-02-08T03:35:22.464Z,39.57
2019-02-08T03:37:50.739Z,39.47
2019-02-08T03:40:21.853Z,44.37
2019-02-08T03:42:50.169Z,37.63
2019-02-08T03:45:18.806Z,41.17
2019-02-08T03:47:47.116Z,41.13
2019-02-08T03:50:20.718Z,40.53
2019-02-08T03:52:49.435Z,38.33
2019-02-08T03:55:22.225Z,40.37
2019-02-08T03:57:50.522Z,38.90
2019-02-08T04:00:22.670Z,39.67
2019-02-08T04:02:50.950Z,44.80
2019-02-08T04:05:19.303Z,42.67
2019-02-08T04:07:47.552Z,44.43
2019-02-08T04:10:17.788Z,47.13
2019-02-08T04:12:46.088Z,44.70
2019-02-08T04:15:17.321Z,47.80
2019-02-08T04:17:45.589Z,48.37
2019-02-08T04:20:16.246Z,47.90
2019-02-08T04:22:44.512Z,46.67
2019-02-08T04:25:15.442Z,50.33
2019-02-08T04:27:43.753Z,48.90
2019-02-08T04:30:15.362Z,46.27
2019-02-08T04:32:43.637Z,48.60
2019-02-08T04:35:12.213Z,51.83
2019-02-08T04:37:40.494Z,49.17
2019-02-08T04:40:12.259Z,49.77
2019-02-08T04:42:40.578Z,48.80
2019-02-08T04:45:10.301Z,50.70
2019-02-08T04:47:38.876Z,52.07
2019-02-08T04:50:10.449Z,49.20
2019-02-08T04:52:38.723Z,50.13
2019-02-08T04:55:08.843Z,51.57
2019-02-08T04:57:37.219Z,55.30
2019-02-08T05:00:14.632Z,54.83
2019-02-08T05:02:42.959Z,50.40
2019-02-08T05:05:11.384Z,49.43
2019-02-08T05:07:39.680Z,54.07
2019-02-08T05:10:11.583Z,56.33
2019-02-08T05:12:39.854Z,59.50
2019-02-08T05:15:08.663Z,56.73
2019-02-08T05:17:36.980Z,63.97
2019-02-08T05:20:14.419Z,81.13
2019-02-08T05:22:42.749Z,88.03
2019-02-08T05:25:11.390Z,114.87
2019-02-08T05:27:39.669Z,112.60
2019-02-08T05:30:13.995Z,90.17
2019-02-08T05:32:42.257Z,79.77
2019-02-08T05:35:11.020Z,65.87
2019-02-08T05:37:39.342Z,59.37
2019-02-08T05:40:10.259Z,58.03
2019-02-08T05:42:38.608Z,53.67
2019-02-08T05:45:10.098Z,55.83
2019-02-08T05:47:38.364Z,59.97
2019-02-08T05:50:12.707Z,57.17
2019-02-08T05:52:41.024Z,56.50
2019-02-08T05:55:12.744Z,58.43
2019-02-08T05:57:41.015Z,59.30
2019-02-08T06:00:25.564Z,67.70
2019-02-08T06:02:54.075Z,62.07
2019-02-08T06:05:22.666Z,66.23
2019-02-08T06:07:50.963Z,66.20
2019-02-08T06:10:19.242Z,66.00
2019-02-08T06:12:47.578Z,63.13
2019-02-08T06:15:24.246Z,64.13
2019-02-08T06:17:52.526Z,63.77
2019-02-08T06:20:22.136Z,58.60
2019-02-08T06:22:50.489Z,62.60
2019-02-08T06:25:20.967Z,58.97
2019-02-08T06:27:49.414Z,59.70
2019-02-08T06:30:20.458Z,59.43
2019-02-08T06:32:48.735Z,59.90
2019-02-08T06:35:18.341Z,61.33
2019-02-08T06:37:46.715Z,55.67
2019-02-08T06:40:20.672Z,59.47
2019-02-08T06:42:48.968Z,60.30
2019-02-08T06:45:22.619Z,62.10
2019-02-08T06:47:50.881Z,57.53
2019-02-08T06:50:21.601Z,58.30
2019-02-08T06:52:49.918Z,57.43
2019-02-08T06:55:18.269Z,52.20
2019-02-08T06:57:48.191Z,58.17
2019-02-08T07:00:38.247Z,56.00
2019-02-08T07:03:24.480Z,65.43
2019-02-08T07:06:03.645Z,60.63
2019-02-08T07:08:39.654Z,62.53
2019-02-08T07:11:09.585Z,65.00
2019-02-08T07:13:44.995Z,58.43
2019-02-08T07:16:17.681Z,61.33
2019-02-08T07:19:02.338Z,58.30
2019-02-08T07:21:32.302Z,54.20
2019-02-08T07:24:17.513Z,53.43
2019-02-08T07:26:49.939Z,55.80
2019-02-08T07:29:25.670Z,56.93
2019-02-08T07:32:01.281Z,54.13
2019-02-08T07:34:31.309Z,55.90
2019-02-08T07:37:01.223Z,57.40
2019-02-08T07:39:32.409Z,60.97
2019-02-08T07:42:05.011Z,58.53
2019-02-08T07:44:38.256Z,54.97
2019-02-08T07:47:24.531Z,53.77
2019-02-08T07:49:54.496Z,58.70
2019-02-08T07:52:24.410Z,54.10
2019-02-08T07:54:54.318Z,53.13
2019-02-08T07:57:25.894Z,57.00
2019-02-08T08:00:13.862Z,52.80
2019-02-08T08:03:01.074Z,50.27
2019-02-08T08:05:37.911Z,51.87
2019-02-08T08:08:24.571Z,52.97
2019-02-08T08:11:01.884Z,49.13
2019-02-08T08:13:34.368Z,48.07
2019-02-08T08:16:16.303Z,48.60
2019-02-08T08:18:55.208Z,49.43
2019-02-08T08:21:29.609Z,50.77
2019-02-08T08:24:14.806Z,47.37
2019-02-08T08:26:44.725Z,46.80
2019-02-08T08:29:19.265Z,43.90
2019-02-08T08:31:52.079Z,42.57
2019-02-08T08:34:48.806Z,43.07
2019-02-08T08:37:40.006Z,46.30
2019-02-08T08:40:23.576Z,40.37
2019-02-08T08:43:15.271Z,37.43
2019-02-08T08:46:08.206Z,40.37
2019-02-08T08:49:01.732Z,36.63
2019-02-08T08:51:41.898Z,36.73
2019-02-08T08:54:25.200Z,31.20
2019-02-08T08:57:05.355Z,32.37
2019-02-08T08:59:39.703Z,31.57
2019-02-08T09:02:23.097Z,32.30
2019-02-08T09:05:18.782Z,30.37
2019-02-08T09:08:14.400Z,38.20
2019-02-08T09:11:08.527Z,33.13
2019-02-08T09:14:00.971Z,35.30
2019-02-08T09:16:53.525Z,37.20
2019-02-08T09:19:50.849Z,28.53
2019-02-08T09:22:31.218Z,26.07
2019-02-08T09:25:11.568Z,28.27
2019-02-08T09:28:02.663Z,25.87
2019-02-08T09:30:43.394Z,32.53
2019-02-08T09:33:40.117Z,33.23
2019-02-08T09:36:36.595Z,52.17
2019-02-08T09:39:24.591Z,36.60
2019-02-08T09:42:21.174Z,28.53
2019-02-08T09:45:27.290Z,25.43
2019-02-08T09:48:31.747Z,26.37
2019-02-08T09:51:19.876Z,25.20
2019-02-08T09:54:09.200Z,31.87
2019-02-08T09:56:58.891Z,28.33
2019-02-08T09:59:50.185Z,32.47
2019-02-08T10:02:30.483Z,41.93
2019-02-08T10:05:14.102Z,27.30
2019-02-08T10:08:17.357Z,30.73
2019-02-08T10:11:19.041Z,27.53
2019-02-08T10:14:10.122Z,30.37
2019-02-08T10:16:47.515Z,29.97
2019-02-08T10:19:24.676Z,23.23
2019-02-08T10:22:13.892Z,24.77
2019-02-08T10:25:04.766Z,26.80
2019-02-08T10:27:55.405Z,23.97
2019-02-08T10:30:43.437Z,20.97
2019-02-08T10:33:39.330Z,21.80
2019-02-08T10:36:13.412Z,40.77
2019-02-08T10:38:59.903Z,52.17
2019-02-08T10:41:56.690Z,55.97
2019-02-08T10:45:02.971Z,58.03
2019-02-08T10:47:57.109Z,56.17
2019-02-08T10:50:34.611Z,57.20
2019-02-08T10:53:31.749Z,57.90
2019-02-08T10:56:31.911Z,59.10
2019-02-08T10:59:25.924Z,55.63
2019-02-08T11:02:19.553Z,61.30
2019-02-08T11:05:03.116Z,66.83
2019-02-08T11:08:09.351Z,64.80
2019-02-08T11:10:55.879Z,63.40
2019-02-08T11:13:27.580Z,69.07
2019-02-08T11:16:02.037Z,70.30
2019-02-08T11:19:06.358Z,73.70
2019-02-08T11:21:34.633Z,78.63
2019-02-08T11:24:02.910Z,68.80
2019-02-08T11:26:31.249Z,72.60
2019-02-08T11:28:59.536Z,73.10
2019-02-08T11:31:31.394Z,70.13
2019-02-08T11:33:59.792Z,75.20
2019-02-08T11:36:28.066Z,71.47
2019-02-08T11:38:56.354Z,75.20
2019-02-08T11:41:24.660Z,75.47
2019-02-08T11:43:52.949Z,77.37
2019-02-08T11:46:21.224Z,78.43
2019-02-08T11:48:49.551Z,72.70
2019-02-08T11:51:17.947Z,76.93
2019-02-08T11:53:46.214Z,78.80
2019-02-08T11:56:14.528Z,86.03
2019-02-08T11:58:42.806Z,83.30
2019-02-08T12:01:11.435Z,75.90
2019-02-08T12:03:39.753Z,77.27
2019-02-08T12:06:08.038Z,69.80
2019-02-08T12:08:36.321Z,74.43
2019-02-08T12:11:04.630Z,73.30
2019-02-08T12:13:32.912Z,77.60
2019-02-08T12:16:02.831Z,79.27
2019-02-08T12:18:31.141Z,98.07
2019-02-08T12:20:59.458Z,76.37
2019-02-08T12:23:27.823Z,81.73
2019-02-08T12:25:56.138Z,89.17
2019-02-08T12:28:24.433Z,82.27
2019-02-08T12:30:56.011Z,75.47
2019-02-08T12:33:24.321Z,78.23
2019-02-08T12:35:52.595Z,79.33
2019-02-08T12:38:20.873Z,79.53
2019-02-08T12:40:49.365Z,81.77
2019-02-08T12:43:17.713Z,88.43
2019-02-08T12:45:48.267Z,85.23
2019-02-08T12:48:16.587Z,85.50
2019-02-08T12:50:44.855Z,85.73
2019-02-08T12:53:13.152Z,81.33
2019-02-08T12:55:41.467Z,91.23
2019-02-08T12:58:09.755Z,83.97
2019-02-08T13:00:42.922Z,87.60
2019-02-08T13:03:11.234Z,89.53
2019-02-08T13:05:39.516Z,86.13
2019-02-08T13:08:07.779Z,84.83
2019-02-08T13:10:36.084Z,92.53
2019-02-08T13:13:04.371Z,84.30
2019-02-08T13:15:34.345Z,86.97
2019-02-08T13:18:02.685Z,93.23
2019-02-08T13:20:30.942Z,91.50
2019-02-08T13:22:59.214Z,97.43
2019-02-08T13:25:27.520Z,92.13
2019-02-08T13:27:57.549Z,93.80
2019-02-08T13:30:30.099Z,110.33
2019-02-08T13:32:58.472Z,90.90
2019-02-08T13:35:26.758Z,85.60
2019-02-08T13:37:55.116Z,93.33
2019-02-08T13:40:27.902Z,105.37
2019-02-08T13:42:56.188Z,109.10
2019-02-08T13:45:25.641Z,112.10
2019-02-08T13:47:54.022Z,128.30
2019-02-08T13:50:27.142Z,105.87
2019-02-08T13:52:58.990Z,98.77
2019-02-08T13:55:32.970Z,116.53
2019-02-08T13:58:01.235Z,104.13
2019-02-08T14:00:32.462Z,102.83
2019-02-08T14:03:00.738Z,101.03
2019-02-08T14:05:29.098Z,117.43
2019-02-08T14:07:57.428Z,118.07
2019-02-08T14:10:25.728Z,117.03
2019-02-08T14:12:54.011Z,114.20
2019-02-08T14:15:24.621Z,115.87
2019-02-08T14:17:52.899Z,119.60
2019-02-08T14:20:26.665Z,110.67
2019-02-08T14:22:55.251Z,116.73
2019-02-08T14:25:23.539Z,112.10
2019-02-08T14:27:52.153Z,122.80
2019-02-08T14:30:25.793Z,126.43
2019-02-08T14:32:54.265Z,114.73
2019-02-08T14:35:24.235Z,121.03
2019-02-08T14:37:52.598Z,121.23
2019-02-08T14:40:23.143Z,119.77
2019-02-08T14:42:51.433Z,118.60
2019-02-08T14:45:19.925Z,140.50
2019-02-08T14:47:48.281Z,141.23
2019-02-08T14:50:29.979Z,136.57
2019-02-08T14:52:58.610Z,135.60
2019-02-08T14:55:30.308Z,135.77
2019-02-08T14:58:03.148Z,130.37
2019-02-08T15:00:31.428Z,133.20
2019-02-08T15:02:59.708Z,142.17
2019-02-08T15:05:29.654Z,129.43
2019-02-08T15:08:00.014Z,138.23
2019-02-08T15:10:31.531Z,132.17
2019-02-08T15:13:00.378Z,138.83
2019-02-08T15:15:28.952Z,145.77
2019-02-08T15:17:58.878Z,141.50
2019-02-08T15:20:30.003Z,121.10
2019-02-08T15:22:58.367Z,151.17
2019-02-08T15:25:26.651Z,130.10
2019-02-08T15:27:54.957Z,140.17
2019-02-08T15:30:31.856Z,131.97
2019-02-08T15:33:00.230Z,150.97
2019-02-08T15:35:30.154Z,152.13
2019-02-08T15:37:58.444Z,144.23
2019-02-08T15:40:35.180Z,131.80
2019-02-08T15:43:03.495Z,144.80
2019-02-08T15:45:35.315Z,173.83
2019-02-08T15:48:03.640Z,133.20
2019-02-08T15:50:32.012Z,118.70
2019-02-08T15:53:00.356Z,138.17
2019-02-08T15:55:39.171Z,127.47
2019-02-08T15:58:09.070Z,139.33
2019-02-08T16:00:37.349Z,138.97
2019-02-08T16:03:09.089Z,146.80
2019-02-08T16:05:37.434Z,187.00
2019-02-08T16:08:05.787Z,144.90
2019-02-08T16:10:34.097Z,147.97
2019-02-08T16:13:02.370Z,134.20
2019-02-08T16:15:31.290Z,152.83
2019-02-08T16:17:59.781Z,133.13
2019-02-08T16:20:29.280Z,138.07
2019-02-08T16:22:59.672Z,141.07
2019-02-08T16:25:30.783Z,149.23
2019-02-08T16:28:01.328Z,156.13
2019-02-08T16:30:36.837Z,168.43
2019-02-08T16:33:08.119Z,160.80
2019-02-08T16:35:36.472Z,165.47
2019-02-08T16:38:07.367Z,164.70
2019-02-08T16:40:37.453Z,180.67
2019-02-08T16:43:10.247Z,167.83
2019-02-08T16:45:40.020Z,174.90
2019-02-08T16:48:12.703Z,171.27
2019-02-08T16:50:43.002Z,186.97
2019-02-08T16:53:13.410Z,187.00
2019-02-08T16:55:43.455Z,198.53
2019-02-08T16:58:14.418Z,184.07
2019-02-08T17:00:44.840Z,192.60
2019-02-08T17:03:15.870Z,200.53
2019-02-08T17:05:44.171Z,202.43
2019-02-08T17:08:12.552Z,192.23
2019-02-08T17:10:40.842Z,189.70
2019-02-08T17:13:09.201Z,195.03
2019-02-08T17:15:37.519Z,172.57
2019-02-08T17:18:07.843Z,199.10
2019-02-08T17:20:38.912Z,202.43
2019-02-08T17:23:08.928Z,196.17
2019-02-08T17:25:38.853Z,203.40
2019-02-08T17:28:08.098Z,191.47
2019-02-08T17:30:36.668Z,197.33
2019-02-08T17:33:07.420Z,162.10
2019-02-08T17:35:37.326Z,182.07
2019-02-08T17:38:09.365Z,173.17
2019-02-08T17:40:40.880Z,172.57
2019-02-08T17:43:09.156Z,160.70
2019-02-08T17:45:37.483Z,169.67
2019-02-08T17:48:07.875Z,162.37
2019-02-08T17:50:36.157Z,165.43
2019-02-08T17:53:04.631Z,159.60
2019-02-08T17:55:32.912Z,153.77
2019-02-08T17:58:03.505Z,162.10
2019-02-08T18:00:44.040Z,169.53
2019-02-08T18:03:12.327Z,142.27
2019-02-08T18:05:40.624Z,180.70
2019-02-08T18:08:08.968Z,187.93
2019-02-08T18:10:39.329Z,180.67
2019-02-08T18:13:07.609Z,171.43
2019-02-08T18:15:36.041Z,174.47
2019-02-08T18:18:06.979Z,157.70
2019-02-08T18:20:38.527Z,178.33
2019-02-08T18:23:06.856Z,178.27
2019-02-08T18:25:35.137Z,179.63
2019-02-08T18:28:11.124Z,196.17
2019-02-08T18:30:37.961Z,195.20
2019-02-08T18:33:06.523Z,190.40
2019-02-08T18:35:34.822Z,202.70
2019-02-08T18:38:03.209Z,193.43
2019-02-08T18:40:31.490Z,202.13
2019-02-08T18:42:59.776Z,197.50
2019-02-08T18:45:29.829Z,187.63
2019-02-08T18:47:58.129Z,214.63
2019-02-08T18:50:32.501Z,198.50
2019-02-08T18:53:00.893Z,203.70
2019-02-08T18:55:29.252Z,196.10
2019-02-08T18:57:57.632Z,205.67
2019-02-08T19:00:31.334Z,201.40
2019-02-08T19:03:00.708Z,173.93
2019-02-08T19:05:28.998Z,181.67
2019-02-08T19:07:57.310Z,186.53
2019-02-08T19:10:25.617Z,152.67
2019-02-08T19:12:53.876Z,148.87
2019-02-08T19:15:23.834Z,151.80
2019-02-08T19:17:52.188Z,166.90
2019-02-08T19:20:25.247Z,155.50
2019-02-08T19:22:53.545Z,161.63
2019-02-08T19:25:27.276Z,169.00
2019-02-08T19:27:55.770Z,159.23
2019-02-08T19:30:27.004Z,156.17
2019-02-08T19:32:55.262Z,153.40
2019-02-08T19:35:23.560Z,152.67
2019-02-08T19:37:51.875Z,152.27
2019-02-08T19:40:22.725Z,150.03
2019-02-08T19:42:51.176Z,149.10
2019-02-08T19:45:19.972Z,159.03
2019-02-08T19:47:52.621Z,159.80
2019-02-08T19:50:29.354Z,155.60
2019-02-08T19:52:57.886Z,149.00
2019-02-08T19:55:26.444Z,144.60
2019-02-08T19:57:54.769Z,150.80
2019-02-08T20:00:25.294Z,141.60
2019-02-08T20:02:53.567Z,152.33
2019-02-08T20:05:23.517Z,132.87
2019-02-08T20:07:53.136Z,161.83
2019-02-08T20:10:24.075Z,151.33
2019-02-08T20:12:54.258Z,146.43
2019-02-08T20:15:22.584Z,141.43
2019-02-08T20:17:50.865Z,141.83
2019-02-08T20:20:19.180Z,151.63
2019-02-08T20:22:47.475Z,146.43
2019-02-08T20:25:27.409Z,153.50
2019-02-08T20:27:55.701Z,141.90
2019-02-08T20:30:25.521Z,136.57
2019-02-08T20:32:53.922Z,139.27
2019-02-08T20:35:24.041Z,145.83
2019-02-08T20:37:52.764Z,158.07
2019-02-08T20:40:26.417Z,141.07
2019-02-08T20:42:54.876Z,146.87
2019-02-08T20:45:26.607Z,137.23
2019-02-08T20:47:55.267Z,139.20
2019-02-08T20:50:24.422Z,134.70
2019-02-08T20:52:52.940Z,138.47
2019-02-08T20:55:22.173Z,148.73
2019-02-08T20:57:52.083Z,142.13
2019-02-08T21:00:27.504Z,130.27
2019-02-08T21:02:57.064Z,138.77
2019-02-08T21:05:25.428Z,125.57
2019-02-08T21:07:53.694Z,116.57
2019-02-08T21:10:22.108Z,120.67
2019-02-08T21:12:52.046Z,122.80
2019-02-08T21:15:21.884Z,115.73
2019-02-08T21:17:50.266Z,102.53
2019-02-08T21:20:19.516Z,107.27
2019-02-08T21:22:49.542Z,109.80
2019-02-08T21:25:26.933Z,104.57
2019-02-08T21:27:55.387Z,124.73
2019-02-08T21:30:25.442Z,126.37
2019-02-08T21:32:53.857Z,112.93
2019-02-08T21:35:22.952Z,110.83
2019-02-08T21:37:53.089Z,115.33
2019-02-08T21:40:38.285Z,106.50
2019-02-08T21:43:11.047Z,110.73
2019-02-08T21:45:44.917Z,109.00
2019-02-08T21:48:15.790Z,106.83
2019-02-08T21:50:45.258Z,99.97
2019-02-08T21:53:15.209Z,121.47
2019-02-08T21:55:43.808Z,118.67
2019-02-08T21:58:13.787Z,101.80
2019-02-08T22:00:45.120Z,102.47
2019-02-08T22:03:17.712Z,104.07
2019-02-08T22:05:54.838Z,90.87
2019-02-08T22:08:23.164Z,90.97
2019-02-08T22:10:53.080Z,98.43
2019-02-08T22:13:22.357Z,87.47
2019-02-08T22:15:50.704Z,113.13
2019-02-08T22:18:21.544Z,104.63
2019-02-08T22:20:51.765Z,103.57
2019-02-08T22:23:21.665Z,114.60
2019-02-08T22:25:50.993Z,124.07
2019-02-08T22:28:19.329Z,122.47
2019-02-08T22:30:49.418Z,109.87
2019-02-08T22:33:17.524Z,109.47
2019-02-08T22:35:47.473Z,111.07
2019-02-08T22:38:15.927Z,120.33
2019-02-08T22:40:45.845Z,119.50
2019-02-08T22:43:16.207Z,125.90
2019-02-08T22:45:46.208Z,135.17
2019-02-08T22:48:14.815Z,143.47
2019-02-08T22:50:43.365Z,130.67
2019-02-08T22:53:13.304Z,128.17
2019-02-08T22:55:43.710Z,136.63
2019-02-08T22:58:14.409Z,134.73
2019-02-08T23:00:53.193Z,122.83
2019-02-08T23:03:26.004Z,113.87
2019-02-08T23:05:57.571Z,120.83
2019-02-08T23:08:25.851Z,123.97
2019-02-08T23:10:54.475Z,126.47
2019-02-08T23:13:22.759Z,122.37
2019-02-08T23:15:51.043Z,109.73
2019-02-08T23:18:19.381Z,126.67
2019-02-08T23:20:47.665Z,120.00
2019-02-08T23:23:16.014Z,115.03
2019-02-08T23:25:44.347Z,132.33
2019-02-08T23:28:12.640Z,127.67
2019-02-08T23:30:42.566Z,130.87
2019-02-08T23:33:10.885Z,110.13
2019-02-08T23:35:43.005Z,126.70
2019-02-08T23:38:09.215Z,93.33
2019-02-08T23:40:37.560Z,115.07
2019-02-08T23:43:08.557Z,130.97
2019-02-08T23:45:38.128Z,138.60
2019-02-08T23:48:06.439Z,134.63
2019-02-08T23:50:34.711Z,136.03
2019-02-08T23:53:03.067Z,144.10
2019-02-08T23:55:31.377Z,152.60
2019-02-08T23:58:02.177Z,133.40
